createdAt,value
2019-05-25T00:01:08.965Z,97393.02
2019-05-25T00:03:36.627Z,97389.72
2019-05-25T00:06:04.378Z,97396.09
2019-05-25T00:08:32.374Z,97389.53
2019-05-25T00:10:59.968Z,97398.69
2019-05-25T00:13:28.046Z,97396.72
2019-05-25T00:15:56.625Z,97392.55
2019-05-25T00:18:24.434Z,97389.55
2019-05-25T00:20:52.003Z,97390.12
2019-05-25T00:23:19.650Z,97392.00
2019-05-25T00:25:47.337Z,97389.28
2019-05-25T00:28:15.060Z,97390.98
2019-05-25T00:30:45.356Z,97362.36
2019-05-25T00:33:13.080Z,97383.95
2019-05-25T00:35:40.702Z,97384.28
2019-05-25T00:38:09.388Z,97386.30
2019-05-25T00:40:37.133Z,97382.31
2019-05-25T00:43:04.826Z,97382.02
2019-05-25T00:45:32.530Z,97386.95
2019-05-25T00:48:00.347Z,97388.83
2019-05-25T00:50:27.954Z,97385.83
2019-05-25T00:52:55.668Z,97380.35
2019-05-25T00:55:23.303Z,97383.83
2019-05-25T00:57:50.958Z,97385.15
2019-05-25T01:00:19.870Z,97379.19
2019-05-25T01:02:47.493Z,97374.05
2019-05-25T01:05:15.220Z,97384.43
2019-05-25T01:07:42.897Z,97363.55
2019-05-25T01:10:10.664Z,97377.75
2019-05-25T01:12:38.276Z,97380.92
2019-05-25T01:15:07.073Z,97380.81
2019-05-25T01:17:34.699Z,97379.27
2019-05-25T01:20:02.493Z,97384.50
2019-05-25T01:22:30.184Z,97380.17
2019-05-25T01:24:57.763Z,97384.88
2019-05-25T01:27:25.451Z,97379.67
2019-05-25T01:29:53.053Z,97373.09
2019-05-25T01:32:20.709Z,97376.72
2019-05-25T01:34:48.278Z,97377.44
2019-05-25T01:37:15.959Z,97378.05
2019-05-25T01:39:43.691Z,97365.03
2019-05-25T01:42:11.373Z,97369.27
2019-05-25T01:44:39.079Z,97362.00
2019-05-25T01:47:06.876Z,97371.58
2019-05-25T01:49:34.585Z,97351.78
2019-05-25T01:52:02.325Z,97371.91
2019-05-25T01:54:29.983Z,97368.41
2019-05-25T01:56:57.723Z,97371.58
2019-05-25T01:59:27.033Z,97371.48
2019-05-25T02:01:54.682Z,97370.78
2019-05-25T02:04:22.330Z,97366.50
2019-05-25T02:06:49.913Z,97372.00
2019-05-25T02:09:17.582Z,97367.48
2019-05-25T02:11:45.477Z,97374.12
2019-05-25T02:14:13.187Z,97370.17
2019-05-25T02:16:40.937Z,97372.36
2019-05-25T02:19:08.596Z,97370.97
2019-05-25T02:21:36.174Z,97373.72
2019-05-25T02:24:03.882Z,97371.86
2019-05-25T02:26:31.480Z,97371.95
2019-05-25T02:28:59.140Z,97378.42
2019-05-25T02:31:26.769Z,97380.50
2019-05-25T02:33:54.520Z,97372.90
2019-05-25T02:36:22.079Z,97378.89
2019-05-25T02:38:49.961Z,97371.03
2019-05-25T02:41:17.559Z,97368.30
2019-05-25T02:43:45.279Z,97372.86
2019-05-25T02:46:12.875Z,97379.05
2019-05-25T02:48:40.547Z,97378.75
2019-05-25T02:51:10.077Z,97380.68
2019-05-25T02:53:37.697Z,97380.95
2019-05-25T02:56:05.393Z,97381.53
2019-05-25T02:58:33.169Z,97373.95
2019-05-25T03:01:00.885Z,97380.70
2019-05-25T03:03:28.583Z,97379.16
2019-05-25T03:05:56.623Z,97375.95
2019-05-25T03:08:25.779Z,97373.01
2019-05-25T03:10:54.873Z,97371.14
2019-05-25T03:13:22.471Z,97369.75
2019-05-25T03:15:50.194Z,97373.25
2019-05-25T03:18:17.737Z,97380.50
2019-05-25T03:20:45.399Z,97381.64
2019-05-25T03:23:12.974Z,97379.66
2019-05-25T03:25:49.060Z,97382.70
2019-05-25T03:28:10.218Z,97384.59
2019-05-25T03:30:38.121Z,97383.48
2019-05-25T03:33:05.723Z,97392.93
2019-05-25T03:35:33.613Z,97385.77
2019-05-25T03:38:01.206Z,97383.50
2019-05-25T03:40:28.923Z,97382.27
2019-05-25T03:42:57.089Z,97388.20
2019-05-25T03:45:24.765Z,97391.42
2019-05-25T03:47:53.201Z,97390.75
2019-05-25T03:50:22.181Z,97391.14
2019-05-25T03:52:49.805Z,97400.88
2019-05-25T03:55:17.458Z,97402.02
2019-05-25T03:57:45.116Z,97409.02
2019-05-25T04:00:13.054Z,97410.52
2019-05-25T04:02:40.694Z,97404.16
2019-05-25T04:05:08.455Z,97408.77
2019-05-25T04:07:36.037Z,97411.88
2019-05-25T04:10:04.163Z,97409.89
2019-05-25T04:12:31.834Z,97420.47
2019-05-25T04:14:59.415Z,97417.98
2019-05-25T04:17:27.029Z,97418.17
2019-05-25T04:19:54.658Z,97415.30
2019-05-25T04:22:22.210Z,97412.50
2019-05-25T04:24:49.845Z,97416.26
2019-05-25T04:27:17.457Z,97410.83
2019-05-25T04:29:44.990Z,97414.95
2019-05-25T04:32:12.701Z,97422.11
2019-05-25T04:34:40.312Z,97414.48
2019-05-25T04:37:07.830Z,97425.53
2019-05-25T04:39:35.494Z,97423.27
2019-05-25T04:42:03.206Z,97430.70
2019-05-25T04:44:30.891Z,97405.39
2019-05-25T04:46:58.454Z,97428.92
2019-05-25T04:49:26.101Z,97425.09
2019-05-25T04:51:53.624Z,97427.11
2019-05-25T04:54:21.371Z,97425.75
2019-05-25T04:56:49.779Z,97430.89
2019-05-25T04:59:17.470Z,97431.81
2019-05-25T05:01:45.182Z,97431.16
2019-05-25T05:04:12.867Z,97427.48
2019-05-25T05:06:40.450Z,97419.62
2019-05-25T05:09:08.048Z,97420.11
2019-05-25T05:11:35.650Z,97425.17
2019-05-25T05:14:03.472Z,97411.38
2019-05-25T05:16:31.794Z,97422.13
2019-05-25T05:18:59.406Z,97428.47
2019-05-25T05:21:26.973Z,97430.07
2019-05-25T05:23:54.621Z,97432.37
2019-05-25T05:26:22.201Z,97422.47
2019-05-25T05:28:50.094Z,97425.40
2019-05-25T05:31:23.407Z,97423.88
2019-05-25T05:33:47.233Z,97428.12
2019-05-25T05:36:15.237Z,97437.44
2019-05-25T05:38:43.522Z,97442.30
2019-05-25T05:41:11.617Z,97439.05
2019-05-25T05:43:39.991Z,97444.51
2019-05-25T05:46:08.635Z,97439.02
2019-05-25T05:48:37.763Z,97445.55
2019-05-25T05:51:07.249Z,97445.52
2019-05-25T05:53:35.930Z,97446.56
2019-05-25T05:56:03.919Z,97445.91
2019-05-25T05:58:31.539Z,97449.36
2019-05-25T06:00:59.176Z,97452.00
2019-05-25T06:03:26.916Z,97450.91
2019-05-25T06:05:54.747Z,97455.27
2019-05-25T06:08:22.367Z,97452.07
2019-05-25T06:10:50.085Z,97453.30
2019-05-25T06:13:17.657Z,97451.34
2019-05-25T06:15:45.387Z,97447.61
2019-05-25T06:18:13.448Z,97446.55
2019-05-25T06:20:41.200Z,97442.76
2019-05-25T06:23:12.329Z,97443.77
2019-05-25T06:25:38.331Z,97441.47
2019-05-25T06:28:05.953Z,97442.17
2019-05-25T06:30:33.571Z,97443.75
2019-05-25T06:33:01.262Z,97450.73
2019-05-25T06:35:29.022Z,97450.25
2019-05-25T06:37:56.641Z,97454.76
2019-05-25T06:40:24.394Z,97450.70
2019-05-25T06:42:52.187Z,97440.14
2019-05-25T06:45:19.869Z,97453.59
2019-05-25T06:47:47.678Z,97459.39
2019-05-25T06:50:15.513Z,97456.66
2019-05-25T06:52:43.229Z,97458.79
2019-05-25T06:55:11.060Z,97455.22
2019-05-25T06:57:43.581Z,97453.17
2019-05-25T07:00:08.895Z,97454.66
2019-05-25T07:02:36.669Z,97449.93
2019-05-25T07:05:05.554Z,97446.41
2019-05-25T07:07:33.289Z,97458.66
2019-05-25T07:10:00.996Z,97452.65
2019-05-25T07:12:28.670Z,97459.72
2019-05-25T07:14:56.435Z,97463.69
2019-05-25T07:17:24.143Z,97464.33
2019-05-25T07:19:51.966Z,97459.50
2019-05-25T07:22:19.679Z,97463.30
2019-05-25T07:24:47.407Z,97457.04
2019-05-25T07:27:15.061Z,97451.55
2019-05-25T07:29:42.826Z,97433.00
2019-05-25T07:32:10.386Z,97444.97
2019-05-25T07:34:38.033Z,97441.13
2019-05-25T07:37:05.727Z,97442.14
2019-05-25T07:39:33.408Z,97445.10
2019-05-25T07:42:01.365Z,97445.72
2019-05-25T07:44:29.095Z,97445.55
2019-05-25T07:46:56.723Z,97444.73
2019-05-25T07:49:24.373Z,97446.14
2019-05-25T07:51:52.044Z,97445.05
2019-05-25T07:54:19.623Z,97442.94
2019-05-25T07:56:47.249Z,97450.27
2019-05-25T07:59:14.895Z,97447.29
2019-05-25T08:01:42.535Z,97448.52
2019-05-25T08:04:10.067Z,97447.45
2019-05-25T08:06:37.763Z,97448.88
2019-05-25T08:09:06.569Z,97448.14
2019-05-25T08:11:34.490Z,97452.23
2019-05-25T08:14:02.080Z,97448.89
2019-05-25T08:16:29.787Z,97441.45
2019-05-25T08:18:59.210Z,97442.20
2019-05-25T08:21:26.861Z,97442.80
2019-05-25T08:23:54.482Z,97436.42
2019-05-25T08:26:22.300Z,97437.67
2019-05-25T08:28:50.081Z,97445.37
2019-05-25T08:31:18.118Z,97436.53
2019-05-25T08:33:45.779Z,97434.70
2019-05-25T08:36:13.441Z,97415.73
2019-05-25T08:38:40.976Z,97433.69
2019-05-25T08:41:08.656Z,97432.77
2019-05-25T08:43:37.354Z,97437.59
2019-05-25T08:46:05.025Z,97436.88
2019-05-25T08:48:32.965Z,97440.73
2019-05-25T08:51:00.617Z,97436.56
2019-05-25T08:53:40.642Z,97436.97
2019-05-25T08:55:57.886Z,97435.77
2019-05-25T08:58:25.614Z,97441.09
2019-05-25T09:00:53.302Z,97438.91
2019-05-25T09:03:20.926Z,97434.41
2019-05-25T09:05:48.617Z,97439.39
2019-05-25T09:08:16.169Z,97434.77
2019-05-25T09:10:43.767Z,97437.53
2019-05-25T09:13:11.361Z,97431.41
2019-05-25T09:15:39.008Z,97432.70
2019-05-25T09:18:06.759Z,97427.33
2019-05-25T09:20:34.466Z,97437.50
2019-05-25T09:23:03.357Z,97436.52
2019-05-25T09:25:31.017Z,97430.89
2019-05-25T09:27:58.601Z,97430.84
2019-05-25T09:30:26.234Z,97430.97
2019-05-25T09:32:53.965Z,97433.07
2019-05-25T09:35:21.599Z,97442.80
2019-05-25T09:37:49.325Z,97429.71
2019-05-25T09:40:16.984Z,97422.75
2019-05-25T09:42:44.826Z,97432.12
2019-05-25T09:45:14.230Z,97436.00
2019-05-25T09:47:42.166Z,97431.98
2019-05-25T09:50:11.140Z,97431.48
2019-05-25T09:52:38.882Z,97423.69
2019-05-25T09:55:06.964Z,97419.42
2019-05-25T09:57:35.769Z,97421.80
2019-05-25T10:00:04.195Z,97417.80
2019-05-25T10:02:31.898Z,97414.59
2019-05-25T10:05:01.202Z,97418.51
2019-05-25T10:07:28.996Z,97410.59
2019-05-25T10:09:56.740Z,97412.04
2019-05-25T10:12:24.583Z,97411.92
2019-05-25T10:14:52.130Z,97397.45
2019-05-25T10:17:19.878Z,97404.55
2019-05-25T10:19:47.439Z,97410.20
2019-05-25T10:22:15.175Z,97405.83
2019-05-25T10:24:42.766Z,97411.96
2019-05-25T10:27:10.466Z,97384.27
2019-05-25T10:29:38.671Z,97401.80
2019-05-25T10:32:06.418Z,97394.78
2019-05-25T10:34:34.082Z,97393.70
2019-05-25T10:37:01.722Z,97398.13
2019-05-25T10:39:29.307Z,97387.16
2019-05-25T10:41:58.119Z,97393.63
2019-05-25T10:44:25.935Z,97386.62
2019-05-25T10:46:53.613Z,97386.03
2019-05-25T10:49:21.354Z,97377.80
2019-05-25T10:51:49.088Z,97373.59
2019-05-25T10:54:16.855Z,97363.87
2019-05-25T10:56:44.604Z,97369.04
2019-05-25T10:59:12.298Z,97365.89
2019-05-25T11:01:39.881Z,97376.10
2019-05-25T11:04:07.674Z,97367.89
2019-05-25T11:06:35.183Z,97364.97
2019-05-25T11:09:03.763Z,97362.99
2019-05-25T11:11:31.381Z,97352.38
2019-05-25T11:13:59.018Z,97353.12
2019-05-25T11:16:26.578Z,97351.90
2019-05-25T11:18:54.289Z,97351.13
2019-05-25T11:21:21.816Z,97345.81
2019-05-25T11:23:49.447Z,97345.77
2019-05-25T11:26:17.003Z,97348.48
2019-05-25T11:28:44.705Z,97338.52
2019-05-25T11:31:12.233Z,97338.61
2019-05-25T11:33:39.985Z,97349.71
2019-05-25T11:36:07.525Z,97340.76
2019-05-25T11:38:35.200Z,97342.27
2019-05-25T11:41:02.891Z,97342.94
2019-05-25T11:43:30.512Z,97336.70
2019-05-25T11:45:58.295Z,97342.48
2019-05-25T11:48:25.892Z,97333.30
2019-05-25T11:50:53.732Z,97336.84
2019-05-25T11:53:21.380Z,97339.23
2019-05-25T11:55:49.851Z,97316.19
2019-05-25T11:58:17.560Z,97321.95
2019-05-25T12:00:45.612Z,97318.75
2019-05-25T12:03:13.274Z,97314.53
2019-05-25T12:05:41.048Z,97315.28
2019-05-25T12:08:08.848Z,97311.69
2019-05-25T12:10:36.612Z,97312.52
2019-05-25T12:13:04.521Z,97319.38
2019-05-25T12:15:32.190Z,97313.41
2019-05-25T12:18:00.024Z,97317.14
2019-05-25T12:20:27.753Z,97311.98
2019-05-25T12:22:55.401Z,97308.50
2019-05-25T12:25:23.097Z,97310.98
2019-05-25T12:27:50.705Z,97309.43
2019-05-25T12:30:18.670Z,97309.91
2019-05-25T12:32:46.309Z,97305.75
2019-05-25T12:35:14.164Z,97305.05
2019-05-25T12:37:41.938Z,97299.34
2019-05-25T12:40:09.995Z,97305.80
2019-05-25T12:42:37.779Z,97304.58
2019-05-25T12:45:06.538Z,97300.68
2019-05-25T12:47:34.274Z,97302.00
2019-05-25T12:50:01.926Z,97300.16
2019-05-25T12:52:29.642Z,97297.00
2019-05-25T12:54:57.213Z,97296.71
2019-05-25T12:57:25.001Z,97293.08
2019-05-25T12:59:52.715Z,97290.55
2019-05-25T13:02:20.425Z,97289.41
2019-05-25T13:04:49.154Z,97286.07
2019-05-25T13:07:16.856Z,97287.92
2019-05-25T13:09:44.398Z,97285.33
2019-05-25T13:12:12.122Z,97270.14
2019-05-25T13:14:39.837Z,97279.44
2019-05-25T13:17:07.847Z,97274.63
2019-05-25T13:19:35.584Z,97272.62
2019-05-25T13:22:03.391Z,97271.59
2019-05-25T13:24:31.237Z,97267.08
2019-05-25T13:27:00.538Z,97266.06
2019-05-25T13:29:28.303Z,97255.81
2019-05-25T13:31:55.997Z,97255.94
2019-05-25T13:34:23.738Z,97256.17
2019-05-25T13:36:54.033Z,97255.33
2019-05-25T13:39:21.836Z,97249.87
2019-05-25T13:41:49.573Z,97259.16
2019-05-25T13:44:17.383Z,97257.26
2019-05-25T13:46:45.169Z,97261.23
2019-05-25T13:49:12.913Z,97255.44
2019-05-25T13:51:40.693Z,97254.37
2019-05-25T13:54:08.311Z,97255.55
2019-05-25T13:56:35.846Z,97256.05
2019-05-25T13:59:03.609Z,97260.48
2019-05-25T14:01:31.289Z,97263.25
2019-05-25T14:03:59.037Z,97257.39
2019-05-25T14:06:26.722Z,97257.83
2019-05-25T14:08:54.350Z,97253.76
2019-05-25T14:11:21.900Z,97257.92
2019-05-25T14:13:49.536Z,97252.37
2019-05-25T14:16:17.088Z,97255.85
2019-05-25T14:18:44.840Z,97259.36
2019-05-25T14:21:12.428Z,97256.58
2019-05-25T14:23:40.050Z,97260.98
2019-05-25T14:26:07.674Z,97262.94
2019-05-25T14:28:35.400Z,97256.55
2019-05-25T14:31:02.955Z,97267.64
2019-05-25T14:33:30.742Z,97265.33
2019-05-25T14:35:58.368Z,97262.84
2019-05-25T14:38:26.038Z,97265.70
2019-05-25T14:40:53.651Z,97266.18
2019-05-25T14:43:21.552Z,97263.75
2019-05-25T14:45:53.122Z,97249.37
2019-05-25T14:48:19.219Z,97263.91
2019-05-25T14:50:46.930Z,97267.31
2019-05-25T14:53:14.772Z,97271.17
2019-05-25T14:55:42.594Z,97268.25
2019-05-25T14:58:12.848Z,97265.81
2019-05-25T15:00:39.946Z,97273.80
2019-05-25T15:03:07.770Z,97286.75
2019-05-25T15:05:36.534Z,97298.94
2019-05-25T15:08:04.305Z,97303.34
2019-05-25T15:10:32.206Z,97297.30
2019-05-25T15:13:00.002Z,97284.69
2019-05-25T15:15:27.787Z,97307.42
2019-05-25T15:17:55.478Z,97305.72
2019-05-25T15:20:23.395Z,97305.72
2019-05-25T15:22:51.164Z,97318.95
2019-05-25T15:25:19.007Z,97319.02
2019-05-25T15:27:46.767Z,97317.37
2019-05-25T15:30:14.611Z,97320.41
2019-05-25T15:32:42.292Z,97342.31
2019-05-25T15:35:10.232Z,97341.30
2019-05-25T15:37:37.987Z,97352.71
2019-05-25T15:40:07.284Z,97369.17
2019-05-25T15:42:35.041Z,97364.40
2019-05-25T15:45:03.064Z,97360.52
2019-05-25T15:47:30.724Z,97365.91
2019-05-25T15:49:58.438Z,97374.17
2019-05-25T15:52:26.204Z,97368.17
2019-05-25T15:54:53.922Z,97363.70
2019-05-25T15:57:21.662Z,97361.77
2019-05-25T15:59:49.358Z,97366.14
2019-05-25T16:02:17.139Z,97361.74
2019-05-25T16:04:44.829Z,97366.16
2019-05-25T16:07:12.513Z,97360.10
2019-05-25T16:09:40.287Z,97369.94
2019-05-25T16:12:08.646Z,97370.83
2019-05-25T16:14:36.351Z,97367.56
2019-05-25T16:17:04.139Z,97365.10
2019-05-25T16:19:31.940Z,97358.30
2019-05-25T16:21:59.728Z,97349.16
2019-05-25T16:24:27.486Z,97348.63
2019-05-25T16:26:55.415Z,97340.97
2019-05-25T16:29:23.080Z,97349.13
2019-05-25T16:31:50.897Z,97349.64
2019-05-25T16:34:18.591Z,97360.77
2019-05-25T16:36:46.317Z,97363.62
2019-05-25T16:39:13.969Z,97373.93
2019-05-25T16:41:41.753Z,97374.00
2019-05-25T16:44:09.382Z,97365.08
2019-05-25T16:46:37.084Z,97370.02
2019-05-25T16:49:04.755Z,97367.84
2019-05-25T16:51:32.455Z,97368.78
2019-05-25T16:54:00.117Z,97370.47
2019-05-25T16:56:27.859Z,97377.21
2019-05-25T16:58:55.953Z,97367.91
2019-05-25T17:01:23.870Z,97365.29
2019-05-25T17:03:51.670Z,97343.84
2019-05-25T17:06:19.387Z,97352.19
2019-05-25T17:08:47.118Z,97344.37
2019-05-25T17:11:14.848Z,97328.79
2019-05-25T17:13:42.591Z,97339.49
2019-05-25T17:16:10.302Z,97344.86
2019-05-25T17:18:38.131Z,97340.14
2019-05-25T17:21:05.988Z,97337.77
2019-05-25T17:23:33.717Z,97331.47
2019-05-25T17:26:01.458Z,97333.60
2019-05-25T17:28:29.228Z,97328.55
2019-05-25T17:30:57.029Z,97331.01
2019-05-25T17:33:24.916Z,97322.75
2019-05-25T17:35:52.756Z,97327.91
2019-05-25T17:38:20.511Z,97323.53
2019-05-25T17:40:48.347Z,97321.52
2019-05-25T17:43:16.094Z,97315.83
2019-05-25T17:45:43.778Z,97315.19
2019-05-25T17:48:11.711Z,97324.49
2019-05-25T17:50:39.488Z,97323.73
2019-05-25T17:53:07.193Z,97323.34
2019-05-25T17:55:34.959Z,97323.91
2019-05-25T17:58:02.687Z,97322.92
2019-05-25T18:00:41.899Z,97319.62
2019-05-25T18:03:09.622Z,97317.96
2019-05-25T18:05:37.364Z,97321.20
2019-05-25T18:08:05.073Z,97324.13
2019-05-25T18:10:49.066Z,97326.52
2019-05-25T18:13:02.764Z,97316.53
2019-05-25T18:15:30.416Z,97327.96
2019-05-25T18:17:58.061Z,97320.52
2019-05-25T18:20:25.613Z,97323.70
2019-05-25T18:22:55.689Z,97321.97
2019-05-25T18:25:25.231Z,97341.28
2019-05-25T18:27:53.486Z,97337.35
2019-05-25T18:30:21.717Z,97339.47
2019-05-25T18:32:49.394Z,97343.21
2019-05-25T18:35:17.121Z,97342.67
2019-05-25T18:37:44.882Z,97345.53
2019-05-25T18:40:12.973Z,97356.83
2019-05-25T18:42:40.784Z,97357.75
2019-05-25T18:45:09.366Z,97349.21
2019-05-25T18:47:37.477Z,97366.56
2019-05-25T18:50:05.646Z,97370.50
2019-05-25T18:52:33.440Z,97363.50
2019-05-25T18:55:01.105Z,97348.80
2019-05-25T18:57:28.772Z,97377.19
2019-05-25T18:59:56.370Z,97383.23
2019-05-25T19:02:24.013Z,97384.28
2019-05-25T19:04:59.405Z,97386.50
2019-05-25T19:07:21.461Z,97382.22
2019-05-25T19:09:49.169Z,97395.30
2019-05-25T19:12:16.987Z,97403.49
2019-05-25T19:14:44.755Z,97409.34
2019-05-25T19:17:12.475Z,97415.05
2019-05-25T19:19:40.375Z,97418.95
2019-05-25T19:22:08.098Z,97411.42
2019-05-25T19:24:35.846Z,97416.57
2019-05-25T19:27:03.584Z,97421.81
2019-05-25T19:29:31.326Z,97423.64
2019-05-25T19:31:59.143Z,97426.73
2019-05-25T19:34:26.900Z,97432.52
2019-05-25T19:36:54.726Z,97433.68
2019-05-25T19:39:22.428Z,97440.16
2019-05-25T19:41:50.155Z,97441.70
2019-05-25T19:44:17.849Z,97440.52
2019-05-25T19:46:45.507Z,97441.50
2019-05-25T19:49:13.119Z,97447.51
2019-05-25T19:51:42.072Z,97445.38
2019-05-25T19:54:09.838Z,97439.91
2019-05-25T19:56:37.684Z,97442.03
2019-05-25T19:59:05.391Z,97449.13
2019-05-25T20:01:33.141Z,97423.98
2019-05-25T20:04:01.789Z,97449.29
2019-05-25T20:06:29.603Z,97440.91
2019-05-25T20:08:58.419Z,97438.69
2019-05-25T20:11:26.230Z,97437.11
2019-05-25T20:13:53.970Z,97449.30
2019-05-25T20:16:24.938Z,97450.75
2019-05-25T20:18:51.453Z,97433.27
2019-05-25T20:21:19.246Z,97444.69
2019-05-25T20:23:46.889Z,97440.23
2019-05-25T20:26:14.553Z,97442.41
2019-05-25T20:28:42.221Z,97441.08
2019-05-25T20:31:09.903Z,97437.23
2019-05-25T20:33:37.548Z,97441.38
2019-05-25T20:36:05.184Z,97445.63
2019-05-25T20:38:32.770Z,97437.66
2019-05-25T20:41:00.530Z,97437.92
2019-05-25T20:43:28.112Z,97448.59
2019-05-25T20:45:55.761Z,97446.66
2019-05-25T20:48:23.368Z,97451.05
2019-05-25T20:50:51.041Z,97455.44
2019-05-25T20:53:18.752Z,97454.47
2019-05-25T20:55:46.356Z,97463.22
2019-05-25T20:58:14.000Z,97466.12
2019-05-25T21:00:41.744Z,97463.56
2019-05-25T21:03:09.608Z,97467.92
2019-05-25T21:05:49.645Z,97470.95
2019-05-25T21:08:06.824Z,97466.35
2019-05-25T21:10:34.493Z,97466.84
2019-05-25T21:13:03.813Z,97471.20
2019-05-25T21:15:31.506Z,97470.23
2019-05-25T21:17:59.141Z,97476.54
2019-05-25T21:20:26.821Z,97477.27
2019-05-25T21:22:54.390Z,97480.69
2019-05-25T21:25:22.297Z,97484.20
2019-05-25T21:27:49.958Z,97479.46
2019-05-25T21:30:18.907Z,97484.55
2019-05-25T21:32:46.839Z,97486.00
2019-05-25T21:35:15.045Z,97483.94
2019-05-25T21:37:42.718Z,97484.94
2019-05-25T21:40:10.343Z,97502.27
2019-05-25T21:42:38.073Z,97495.80
2019-05-25T21:45:06.344Z,97499.20
2019-05-25T21:47:34.054Z,97498.85
2019-05-25T21:50:01.786Z,97503.05
2019-05-25T21:52:30.991Z,97502.70
2019-05-25T21:54:58.639Z,97505.04
2019-05-25T21:57:26.236Z,97505.39
2019-05-25T21:59:53.832Z,97504.66
2019-05-25T22:02:21.708Z,97500.67
2019-05-25T22:04:49.343Z,97484.20
2019-05-25T22:07:17.022Z,97508.44
2019-05-25T22:09:44.671Z,97509.66
2019-05-25T22:12:12.339Z,97507.11
2019-05-25T22:14:40.081Z,97506.84
2019-05-25T22:17:07.839Z,97506.25
2019-05-25T22:19:35.510Z,97498.61
2019-05-25T22:22:04.478Z,97496.54
2019-05-25T22:24:32.115Z,97500.19
2019-05-25T22:26:59.869Z,97491.20
2019-05-25T22:29:27.475Z,97494.25
2019-05-25T22:31:55.211Z,97482.84
2019-05-25T22:34:22.861Z,97490.83
2019-05-25T22:36:51.546Z,97499.48
2019-05-25T22:39:19.257Z,97495.80
2019-05-25T22:41:46.884Z,97491.70
2019-05-25T22:44:14.478Z,97490.00
2019-05-25T22:46:42.136Z,97493.64
2019-05-25T22:49:09.730Z,97490.61
2019-05-25T22:51:37.452Z,97490.97
2019-05-25T22:54:05.106Z,97491.70
2019-05-25T22:56:32.723Z,97484.55
2019-05-25T22:59:00.301Z,97489.41
2019-05-25T23:01:27.957Z,97490.97
2019-05-25T23:03:55.533Z,97490.97
2019-05-25T23:06:23.214Z,97492.92
2019-05-25T23:08:50.851Z,97492.30
2019-05-25T23:11:18.522Z,97484.55
2019-05-25T23:13:47.407Z,97488.70
2019-05-25T23:16:15.102Z,97493.20
2019-05-25T23:18:42.973Z,97487.15
2019-05-25T23:21:10.685Z,97485.84
2019-05-25T23:23:38.305Z,97477.70
2019-05-25T23:26:05.966Z,97476.48
2019-05-25T23:28:33.733Z,97476.74
2019-05-25T23:31:01.409Z,97473.17
2019-05-25T23:33:29.025Z,97469.67
2019-05-25T23:35:56.683Z,97472.08
2019-05-25T23:38:24.306Z,97471.94
2019-05-25T23:40:51.997Z,97473.75
2019-05-25T23:43:19.655Z,97475.94
2019-05-25T23:45:48.406Z,97475.94
2019-05-25T23:48:17.035Z,97471.94
2019-05-25T23:50:44.657Z,97455.44
2019-05-25T23:53:12.205Z,97475.30
2019-05-25T23:55:39.959Z,97477.22
2019-05-25T23:58:07.637Z,97474.44
